sensor_id;sensor_type;location;lat;lon;timestamp;temperature;humidity
66586;SHT30;53444;45.822;16.092;2024-01-07T00:00:24;6.47;95.60
66586;SHT30;53444;45.822;16.092;2024-01-07T00:02:52;6.41;95.79
66586;SHT30;53444;45.822;16.092;2024-01-07T00:05:19;6.37;95.78
66586;SHT30;53444;45.822;16.092;2024-01-07T00:07:46;6.36;96.43
66586;SHT30;53444;45.822;16.092;2024-01-07T00:10:13;6.36;95.86
66586;SHT30;53444;45.822;16.092;2024-01-07T00:12:40;6.36;95.91
66586;SHT30;53444;45.822;16.092;2024-01-07T00:15:07;6.34;96.33
66586;SHT30;53444;45.822;16.092;2024-01-07T00:17:34;6.32;96.12
66586;SHT30;53444;45.822;16.092;2024-01-07T00:20:03;6.32;96.33
66586;SHT30;53444;45.822;16.092;2024-01-07T00:22:30;6.37;95.72
66586;SHT30;53444;45.822;16.092;2024-01-07T00:24:57;6.36;96.40
66586;SHT30;53444;45.822;16.092;2024-01-07T00:27:23;6.37;96.35
66586;SHT30;53444;45.822;16.092;2024-01-07T00:29:50;6.34;96.50
66586;SHT30;53444;45.822;16.092;2024-01-07T00:32:17;6.33;96.36
66586;SHT30;53444;45.822;16.092;2024-01-07T00:34:44;6.34;96.17
66586;SHT30;53444;45.822;16.092;2024-01-07T00:37:12;6.36;96.27
66586;SHT30;53444;45.822;16.092;2024-01-07T00:39:39;6.34;96.29
66586;SHT30;53444;45.822;16.092;2024-01-07T00:42:07;6.37;96.07
66586;SHT30;53444;45.822;16.092;2024-01-07T00:44:34;6.27;96.40
66586;SHT30;53444;45.822;16.092;2024-01-07T00:47:01;6.32;96.56
66586;SHT30;53444;45.822;16.092;2024-01-07T00:49:27;6.34;96.53
66586;SHT30;53444;45.822;16.092;2024-01-07T00:51:53;6.33;96.32
66586;SHT30;53444;45.822;16.092;2024-01-07T00:54:21;6.30;96.50
66586;SHT30;53444;45.822;16.092;2024-01-07T00:56:48;6.30;96.67
66586;SHT30;53444;45.822;16.092;2024-01-07T00:59:15;6.38;96.12
66586;SHT30;53444;45.822;16.092;2024-01-07T01:01:42;6.36;96.33
66586;SHT30;53444;45.822;16.092;2024-01-07T01:04:09;6.34;96.18
66586;SHT30;53444;45.822;16.092;2024-01-07T01:06:35;6.37;96.25
66586;SHT30;53444;45.822;16.092;2024-01-07T01:09:02;6.34;96.46
66586;SHT30;53444;45.822;16.092;2024-01-07T01:11:31;6.25;96.43
66586;SHT30;53444;45.822;16.092;2024-01-07T01:13:57;6.33;96.18
66586;SHT30;53444;45.822;16.092;2024-01-07T01:16:24;6.26;96.54
66586;SHT30;53444;45.822;16.092;2024-01-07T01:18:51;6.32;96.33
66586;SHT30;53444;45.822;16.092;2024-01-07T01:21:18;6.32;96.27
66586;SHT30;53444;45.822;16.092;2024-01-07T01:23:46;6.32;96.26
66586;SHT30;53444;45.822;16.092;2024-01-07T01:26:13;6.30;96.44
66586;SHT30;53444;45.822;16.092;2024-01-07T01:28:41;6.27;96.53
66586;SHT30;53444;45.822;16.092;2024-01-07T01:31:08;6.32;96.39
66586;SHT30;53444;45.822;16.092;2024-01-07T01:33:35;6.29;96.22
66586;SHT30;53444;45.822;16.092;2024-01-07T01:36:04;6.30;96.38
66586;SHT30;53444;45.822;16.092;2024-01-07T01:38:31;6.32;96.31
66586;SHT30;53444;45.822;16.092;2024-01-07T01:40:58;6.32;96.18
66586;SHT30;53444;45.822;16.092;2024-01-07T01:43:24;6.25;96.29
66586;SHT30;53444;45.822;16.092;2024-01-07T01:45:54;6.30;96.10
66586;SHT30;53444;45.822;16.092;2024-01-07T01:48:21;6.30;96.17
66586;SHT30;53444;45.822;16.092;2024-01-07T01:50:49;6.29;96.18
66586;SHT30;53444;45.822;16.092;2024-01-07T01:53:16;6.32;96.03
66586;SHT30;53444;45.822;16.092;2024-01-07T01:55:43;6.27;96.23
66586;SHT30;53444;45.822;16.092;2024-01-07T01:58:10;6.22;96.39
66586;SHT30;53444;45.822;16.092;2024-01-07T02:00:37;6.26;96.20
66586;SHT30;53444;45.822;16.092;2024-01-07T02:03:05;6.23;95.96
66586;SHT30;53444;45.822;16.092;2024-01-07T02:05:32;6.27;96.13
66586;SHT30;53444;45.822;16.092;2024-01-07T02:07:59;6.26;95.95
66586;SHT30;53444;45.822;16.092;2024-01-07T02:10:25;6.25;96.31
66586;SHT30;53444;45.822;16.092;2024-01-07T02:12:54;6.20;96.52
66586;SHT30;53444;45.822;16.092;2024-01-07T02:15:21;6.20;96.37
66586;SHT30;53444;45.822;16.092;2024-01-07T02:17:48;6.26;96.21
66586;SHT30;53444;45.822;16.092;2024-01-07T02:20:16;6.22;95.84
66586;SHT30;53444;45.822;16.092;2024-01-07T02:22:43;6.27;95.69
66586;SHT30;53444;45.822;16.092;2024-01-07T02:25:11;6.27;95.81
66586;SHT30;53444;45.822;16.092;2024-01-07T02:27:38;6.22;95.74
66586;SHT30;53444;45.822;16.092;2024-01-07T02:30:06;6.22;96.17
66586;SHT30;53444;45.822;16.092;2024-01-07T02:32:33;6.26;95.71
66586;SHT30;53444;45.822;16.092;2024-01-07T02:35:01;6.23;95.91
66586;SHT30;53444;45.822;16.092;2024-01-07T02:37:28;6.23;95.99
66586;SHT30;53444;45.822;16.092;2024-01-07T02:39:55;6.26;95.63
66586;SHT30;53444;45.822;16.092;2024-01-07T02:42:23;6.23;95.68
66586;SHT30;53444;45.822;16.092;2024-01-07T02:44:50;6.25;95.85
66586;SHT30;53444;45.822;16.092;2024-01-07T02:47:16;6.19;95.87
66586;SHT30;53444;45.822;16.092;2024-01-07T02:49:43;6.19;96.47
66586;SHT30;53444;45.822;16.092;2024-01-07T02:52:10;6.20;96.27
66586;SHT30;53444;45.822;16.092;2024-01-07T02:54:37;6.20;96.15
66586;SHT30;53444;45.822;16.092;2024-01-07T02:57:04;6.15;96.21
66586;SHT30;53444;45.822;16.092;2024-01-07T02:59:33;6.16;96.35
66586;SHT30;53444;45.822;16.092;2024-01-07T03:01:59;6.16;96.39
66586;SHT30;53444;45.822;16.092;2024-01-07T03:04:26;6.20;96.22
66586;SHT30;53444;45.822;16.092;2024-01-07T03:06:53;6.19;95.48
66586;SHT30;53444;45.822;16.092;2024-01-07T03:09:20;6.17;95.86
66586;SHT30;53444;45.822;16.092;2024-01-07T03:11:47;6.19;95.93
66586;SHT30;53444;45.822;16.092;2024-01-07T03:14:13;6.20;95.83
66586;SHT30;53444;45.822;16.092;2024-01-07T03:16:43;6.19;95.94
66586;SHT30;53444;45.822;16.092;2024-01-07T03:19:10;6.17;95.83
66586;SHT30;53444;45.822;16.092;2024-01-07T03:21:37;6.17;95.57
66586;SHT30;53444;45.822;16.092;2024-01-07T03:24:04;6.19;95.65
66586;SHT30;53444;45.822;16.092;2024-01-07T03:26:31;6.17;95.25
66586;SHT30;53444;45.822;16.092;2024-01-07T03:28:58;6.13;95.21
66586;SHT30;53444;45.822;16.092;2024-01-07T03:31:27;6.19;95.31
66586;SHT30;53444;45.822;16.092;2024-01-07T03:33:56;6.16;95.62
66586;SHT30;53444;45.822;16.092;2024-01-07T03:36:23;6.22;95.35
66586;SHT30;53444;45.822;16.092;2024-01-07T03:38:48;6.20;95.19
66586;SHT30;53444;45.822;16.092;2024-01-07T03:41:16;6.22;94.76
66586;SHT30;53444;45.822;16.092;2024-01-07T03:43:43;6.19;94.93
66586;SHT30;53444;45.822;16.092;2024-01-07T03:46:10;6.22;94.49
66586;SHT30;53444;45.822;16.092;2024-01-07T03:48:37;6.26;94.79
66586;SHT30;53444;45.822;16.092;2024-01-07T03:51:05;6.20;94.97
66586;SHT30;53444;45.822;16.092;2024-01-07T03:53:32;6.19;94.84
66586;SHT30;53444;45.822;16.092;2024-01-07T03:55:59;6.17;94.49
66586;SHT30;53444;45.822;16.092;2024-01-07T03:58:26;6.22;94.21
66586;SHT30;53444;45.822;16.092;2024-01-07T04:00:53;6.12;94.28
66586;SHT30;53444;45.822;16.092;2024-01-07T04:03:19;6.16;94.20
66586;SHT30;53444;45.822;16.092;2024-01-07T04:05:46;6.10;94.39
66586;SHT30;53444;45.822;16.092;2024-01-07T04:08:14;6.10;94.66
66586;SHT30;53444;45.822;16.092;2024-01-07T04:10:42;6.15;94.12
66586;SHT30;53444;45.822;16.092;2024-01-07T04:13:09;6.09;94.47
66586;SHT30;53444;45.822;16.092;2024-01-07T04:15:35;6.03;94.31
66586;SHT30;53444;45.822;16.092;2024-01-07T04:18:02;6.02;94.40
66586;SHT30;53444;45.822;16.092;2024-01-07T04:20:30;6.07;93.94
66586;SHT30;53444;45.822;16.092;2024-01-07T04:22:57;6.03;94.28
66586;SHT30;53444;45.822;16.092;2024-01-07T04:25:25;6.05;94.21
66586;SHT30;53444;45.822;16.092;2024-01-07T04:27:52;6.05;93.85
66586;SHT30;53444;45.822;16.092;2024-01-07T04:30:19;6.07;93.58
66586;SHT30;53444;45.822;16.092;2024-01-07T04:32:45;6.02;93.88
66586;SHT30;53444;45.822;16.092;2024-01-07T04:35:12;6.06;93.39
66586;SHT30;53444;45.822;16.092;2024-01-07T04:37:39;5.95;94.12
66586;SHT30;53444;45.822;16.092;2024-01-07T04:40:07;5.92;93.54
66586;SHT30;53444;45.822;16.092;2024-01-07T04:42:35;5.86;93.63
66586;SHT30;53444;45.822;16.092;2024-01-07T04:45:02;5.92;93.90
66586;SHT30;53444;45.822;16.092;2024-01-07T04:47:30;5.86;93.58
66586;SHT30;53444;45.822;16.092;2024-01-07T04:49:57;5.85;93.51
66586;SHT30;53444;45.822;16.092;2024-01-07T04:52:25;5.92;93.06
66586;SHT30;53444;45.822;16.092;2024-01-07T04:54:52;5.91;93.12
66586;SHT30;53444;45.822;16.092;2024-01-07T04:57:20;5.92;92.30
66586;SHT30;53444;45.822;16.092;2024-01-07T04:59:49;5.93;92.14
66586;SHT30;53444;45.822;16.092;2024-01-07T05:02:16;5.91;92.67
66586;SHT30;53444;45.822;16.092;2024-01-07T05:04:43;5.93;92.31
66586;SHT30;53444;45.822;16.092;2024-01-07T05:07:10;5.95;92.31
66586;SHT30;53444;45.822;16.092;2024-01-07T05:09:36;5.93;92.21
66586;SHT30;53444;45.822;16.092;2024-01-07T05:12:04;5.88;92.38
66586;SHT30;53444;45.822;16.092;2024-01-07T05:14:31;5.89;92.41
66586;SHT30;53444;45.822;16.092;2024-01-07T05:16:59;5.82;92.67
66586;SHT30;53444;45.822;16.092;2024-01-07T05:19:25;5.86;92.18
66586;SHT30;53444;45.822;16.092;2024-01-07T05:21:53;5.89;92.03
66586;SHT30;53444;45.822;16.092;2024-01-07T05:24:20;5.86;92.13
66586;SHT30;53444;45.822;16.092;2024-01-07T05:26:46;5.84;91.69
66586;SHT30;53444;45.822;16.092;2024-01-07T05:29:13;5.79;91.98
66586;SHT30;53444;45.822;16.092;2024-01-07T05:31:40;5.81;91.91
66586;SHT30;53444;45.822;16.092;2024-01-07T05:34:08;5.81;92.06
66586;SHT30;53444;45.822;16.092;2024-01-07T05:36:35;5.85;91.99
66586;SHT30;53444;45.822;16.092;2024-01-07T05:39:02;5.72;92.17
66586;SHT30;53444;45.822;16.092;2024-01-07T05:41:29;5.71;92.01
66586;SHT30;53444;45.822;16.092;2024-01-07T05:43:56;5.76;92.27
66586;SHT30;53444;45.822;16.092;2024-01-07T05:46:23;5.72;91.78
66586;SHT30;53444;45.822;16.092;2024-01-07T05:48:50;5.71;91.77
66586;SHT30;53444;45.822;16.092;2024-01-07T05:51:18;5.71;92.14
66586;SHT30;53444;45.822;16.092;2024-01-07T05:53:45;5.71;91.74
66586;SHT30;53444;45.822;16.092;2024-01-07T05:56:12;5.69;91.72
66586;SHT30;53444;45.822;16.092;2024-01-07T05:58:39;5.75;91.12
66586;SHT30;53444;45.822;16.092;2024-01-07T06:01:07;5.74;91.67
66586;SHT30;53444;45.822;16.092;2024-01-07T06:03:34;5.76;91.49
66586;SHT30;53444;45.822;16.092;2024-01-07T06:06:01;5.72;91.69
66586;SHT30;53444;45.822;16.092;2024-01-07T06:08:29;5.71;91.51
66586;SHT30;53444;45.822;16.092;2024-01-07T06:10:56;5.66;92.25
66586;SHT30;53444;45.822;16.092;2024-01-07T06:13:23;5.64;92.47
66586;SHT30;53444;45.822;16.092;2024-01-07T06:15:50;5.52;92.63
66586;SHT30;53444;45.822;16.092;2024-01-07T06:18:17;5.58;92.55
66586;SHT30;53444;45.822;16.092;2024-01-07T06:20:43;5.64;92.10
66586;SHT30;53444;45.822;16.092;2024-01-07T06:23:10;5.66;91.63
66586;SHT30;53444;45.822;16.092;2024-01-07T06:25:38;5.58;91.38
66586;SHT30;53444;45.822;16.092;2024-01-07T06:28:06;5.56;91.72
66586;SHT30;53444;45.822;16.092;2024-01-07T06:30:32;5.59;92.12
66586;SHT30;53444;45.822;16.092;2024-01-07T06:33:00;5.52;92.08
66586;SHT30;53444;45.822;16.092;2024-01-07T06:35:27;5.55;91.56
66586;SHT30;53444;45.822;16.092;2024-01-07T06:37:54;5.55;91.83
66586;SHT30;53444;45.822;16.092;2024-01-07T06:40:20;5.61;90.77
66586;SHT30;53444;45.822;16.092;2024-01-07T06:42:49;5.58;90.78
66586;SHT30;53444;45.822;16.092;2024-01-07T06:45:16;5.62;90.97
66586;SHT30;53444;45.822;16.092;2024-01-07T06:47:43;5.47;91.13
66586;SHT30;53444;45.822;16.092;2024-01-07T06:50:11;5.51;91.00
66586;SHT30;53444;45.822;16.092;2024-01-07T06:52:38;5.62;90.39
66586;SHT30;53444;45.822;16.092;2024-01-07T06:55:07;5.50;90.33
66586;SHT30;53444;45.822;16.092;2024-01-07T06:57:34;5.44;90.91
66586;SHT30;53444;45.822;16.092;2024-01-07T07:00:02;5.45;90.63
66586;SHT30;53444;45.822;16.092;2024-01-07T07:02:30;5.51;90.71
66586;SHT30;53444;45.822;16.092;2024-01-07T07:04:56;5.54;90.28
66586;SHT30;53444;45.822;16.092;2024-01-07T07:07:23;5.51;90.80
66586;SHT30;53444;45.822;16.092;2024-01-07T07:09:50;5.45;90.87
66586;SHT30;53444;45.822;16.092;2024-01-07T07:12:18;5.38;91.18
66586;SHT30;53444;45.822;16.092;2024-01-07T07:14:45;5.40;91.49
66586;SHT30;53444;45.822;16.092;2024-01-07T07:17:13;5.41;90.93
66586;SHT30;53444;45.822;16.092;2024-01-07T07:19:40;5.41;91.58
66586;SHT30;53444;45.822;16.092;2024-01-07T07:22:07;5.43;91.51
66586;SHT30;53444;45.822;16.092;2024-01-07T07:24:34;5.44;91.51
66586;SHT30;53444;45.822;16.092;2024-01-07T07:27:00;5.40;91.81
66586;SHT30;53444;45.822;16.092;2024-01-07T07:29:27;5.43;91.04
66586;SHT30;53444;45.822;16.092;2024-01-07T07:31:54;5.52;90.74
66586;SHT30;53444;45.822;16.092;2024-01-07T07:34:22;5.50;90.45
66586;SHT30;53444;45.822;16.092;2024-01-07T07:36:49;5.52;90.02
66586;SHT30;53444;45.822;16.092;2024-01-07T07:39:17;5.48;90.81
66586;SHT30;53444;45.822;16.092;2024-01-07T07:41:43;5.47;90.59
66586;SHT30;53444;45.822;16.092;2024-01-07T07:44:10;5.40;91.00
66586;SHT30;53444;45.822;16.092;2024-01-07T07:46:37;5.37;90.78
66586;SHT30;53444;45.822;16.092;2024-01-07T07:49:04;5.40;90.78
66586;SHT30;53444;45.822;16.092;2024-01-07T07:51:33;5.40;90.32
66586;SHT30;53444;45.822;16.092;2024-01-07T07:53:59;5.34;90.79
66586;SHT30;53444;45.822;16.092;2024-01-07T07:56:26;5.31;91.18
66586;SHT30;53444;45.822;16.092;2024-01-07T07:58:54;5.40;90.81
66586;SHT30;53444;45.822;16.092;2024-01-07T08:01:21;5.35;90.92
66586;SHT30;53444;45.822;16.092;2024-01-07T08:03:47;5.40;90.87
66586;SHT30;53444;45.822;16.092;2024-01-07T08:06:14;5.40;90.71
66586;SHT30;53444;45.822;16.092;2024-01-07T08:08:42;5.37;90.91
66586;SHT30;53444;45.822;16.092;2024-01-07T08:11:10;5.43;90.94
66586;SHT30;53444;45.822;16.092;2024-01-07T08:13:37;5.33;91.84
66586;SHT30;53444;45.822;16.092;2024-01-07T08:16:05;5.34;91.58
66586;SHT30;53444;45.822;16.092;2024-01-07T08:18:32;5.37;91.41
66586;SHT30;53444;45.822;16.092;2024-01-07T08:20:59;5.37;91.83
66586;SHT30;53444;45.822;16.092;2024-01-07T08:23:25;5.30;91.69
66586;SHT30;53444;45.822;16.092;2024-01-07T08:25:54;5.21;92.51
66586;SHT30;53444;45.822;16.092;2024-01-07T08:28:21;5.17;92.65
66586;SHT30;53444;45.822;16.092;2024-01-07T08:30:47;5.19;92.49
66586;SHT30;53444;45.822;16.092;2024-01-07T08:33:16;5.30;92.39
66586;SHT30;53444;45.822;16.092;2024-01-07T08:35:44;5.23;92.48
66586;SHT30;53444;45.822;16.092;2024-01-07T08:38:11;5.16;92.83
66586;SHT30;53444;45.822;16.092;2024-01-07T08:40:38;5.09;93.34
66586;SHT30;53444;45.822;16.092;2024-01-07T08:43:07;4.97;92.78
66586;SHT30;53444;45.822;16.092;2024-01-07T08:45:33;5.01;93.07
66586;SHT30;53444;45.822;16.092;2024-01-07T08:48:01;5.03;93.56
66586;SHT30;53444;45.822;16.092;2024-01-07T08:50:28;4.99;93.66
66586;SHT30;53444;45.822;16.092;2024-01-07T08:52:55;5.00;93.71
66586;SHT30;53444;45.822;16.092;2024-01-07T08:55:22;5.07;93.60
66586;SHT30;53444;45.822;16.092;2024-01-07T08:57:49;4.99;93.77
66586;SHT30;53444;45.822;16.092;2024-01-07T09:00:19;4.97;93.93
66586;SHT30;53444;45.822;16.092;2024-01-07T09:02:46;4.97;94.26
66586;SHT30;53444;45.822;16.092;2024-01-07T09:05:13;4.93;94.45
66586;SHT30;53444;45.822;16.092;2024-01-07T09:07:40;4.94;94.34
66586;SHT30;53444;45.822;16.092;2024-01-07T09:10:07;4.99;94.39
66586;SHT30;53444;45.822;16.092;2024-01-07T09:12:36;4.90;94.45
66586;SHT30;53444;45.822;16.092;2024-01-07T09:15:03;4.96;93.86
66586;SHT30;53444;45.822;16.092;2024-01-07T09:17:34;4.86;94.07
66586;SHT30;53444;45.822;16.092;2024-01-07T09:20:02;4.87;94.00
66586;SHT30;53444;45.822;16.092;2024-01-07T09:22:31;4.79;94.30
66586;SHT30;53444;45.822;16.092;2024-01-07T09:24:58;4.80;94.18
66586;SHT30;53444;45.822;16.092;2024-01-07T09:27:24;4.80;94.13
66586;SHT30;53444;45.822;16.092;2024-01-07T09:29:51;4.75;93.96
66586;SHT30;53444;45.822;16.092;2024-01-07T09:32:18;4.77;94.17
66586;SHT30;53444;45.822;16.092;2024-01-07T09:34:47;4.73;94.11
66586;SHT30;53444;45.822;16.092;2024-01-07T09:37:14;4.90;94.21
66586;SHT30;53444;45.822;16.092;2024-01-07T09:39:41;4.90;93.29
66586;SHT30;53444;45.822;16.092;2024-01-07T09:42:12;4.80;93.20
66586;SHT30;53444;45.822;16.092;2024-01-07T09:44:39;4.77;93.54
66586;SHT30;53444;45.822;16.092;2024-01-07T09:47:10;4.80;92.55
66586;SHT30;53444;45.822;16.092;2024-01-07T09:49:37;4.68;93.13
66586;SHT30;53444;45.822;16.092;2024-01-07T09:52:07;4.77;92.70
66586;SHT30;53444;45.822;16.092;2024-01-07T09:54:36;4.76;92.66
66586;SHT30;53444;45.822;16.092;2024-01-07T09:57:04;4.83;92.00
66586;SHT30;53444;45.822;16.092;2024-01-07T09:59:33;4.77;92.33
66586;SHT30;53444;45.822;16.092;2024-01-07T10:02:00;4.73;92.66
66586;SHT30;53444;45.822;16.092;2024-01-07T10:04:27;4.73;92.25
66586;SHT30;53444;45.822;16.092;2024-01-07T10:06:54;4.77;92.55
66586;SHT30;53444;45.822;16.092;2024-01-07T10:09:24;4.75;92.58
66586;SHT30;53444;45.822;16.092;2024-01-07T10:11:52;4.72;92.60
66586;SHT30;53444;45.822;16.092;2024-01-07T10:14:19;4.70;92.57
66586;SHT30;53444;45.822;16.092;2024-01-07T10:16:47;4.82;92.03
66586;SHT30;53444;45.822;16.092;2024-01-07T10:19:19;4.69;92.35
66586;SHT30;53444;45.822;16.092;2024-01-07T10:21:46;4.63;92.26
66586;SHT30;53444;45.822;16.092;2024-01-07T10:24:13;4.60;92.49
66586;SHT30;53444;45.822;16.092;2024-01-07T10:26:42;4.63;92.98
66586;SHT30;53444;45.822;16.092;2024-01-07T10:29:09;4.62;92.79
66586;SHT30;53444;45.822;16.092;2024-01-07T10:31:38;4.63;92.18
66586;SHT30;53444;45.822;16.092;2024-01-07T10:34:07;4.68;91.91
66586;SHT30;53444;45.822;16.092;2024-01-07T10:36:36;4.60;92.19
66586;SHT30;53444;45.822;16.092;2024-01-07T10:39:03;4.70;93.38
66586;SHT30;53444;45.822;16.092;2024-01-07T10:41:29;4.69;91.46
66586;SHT30;53444;45.822;16.092;2024-01-07T10:43:58;4.75;91.81
66586;SHT30;53444;45.822;16.092;2024-01-07T10:46:26;4.56;91.62
66586;SHT30;53444;45.822;16.092;2024-01-07T10:48:59;4.53;92.04
66586;SHT30;53444;45.822;16.092;2024-01-07T10:51:27;4.53;92.01
66586;SHT30;53444;45.822;16.092;2024-01-07T10:53:55;4.45;91.99
66586;SHT30;53444;45.822;16.092;2024-01-07T10:56:24;4.48;92.39
66586;SHT30;53444;45.822;16.092;2024-01-07T10:58:52;4.58;91.95
66586;SHT30;53444;45.822;16.092;2024-01-07T11:01:21;4.51;91.98
66586;SHT30;53444;45.822;16.092;2024-01-07T11:03:57;4.63;91.93
66586;SHT30;53444;45.822;16.092;2024-01-07T11:06:31;4.66;92.13
66586;SHT30;53444;45.822;16.092;2024-01-07T11:09:05;4.58;91.81
66586;SHT30;53444;45.822;16.092;2024-01-07T11:11:37;4.59;92.10
66586;SHT30;53444;45.822;16.092;2024-01-07T11:14:36;4.65;92.50
66586;SHT30;53444;45.822;16.092;2024-01-07T11:17:06;4.58;92.32
66586;SHT30;53444;45.822;16.092;2024-01-07T11:19:35;4.63;92.28
66586;SHT30;53444;45.822;16.092;2024-01-07T11:22:21;4.63;92.20
66586;SHT30;53444;45.822;16.092;2024-01-07T11:24:49;4.55;91.84
66586;SHT30;53444;45.822;16.092;2024-01-07T11:27:16;4.51;92.21
66586;SHT30;53444;45.822;16.092;2024-01-07T11:29:53;4.46;92.41
66586;SHT30;53444;45.822;16.092;2024-01-07T11:32:22;4.42;92.00
66586;SHT30;53444;45.822;16.092;2024-01-07T11:34:50;4.46;91.71
66586;SHT30;53444;45.822;16.092;2024-01-07T11:37:19;4.46;91.79
66586;SHT30;53444;45.822;16.092;2024-01-07T11:39:47;4.32;92.43
66586;SHT30;53444;45.822;16.092;2024-01-07T11:42:15;4.35;91.82
66586;SHT30;53444;45.822;16.092;2024-01-07T11:44:45;4.48;91.72
66586;SHT30;53444;45.822;16.092;2024-01-07T11:47:14;4.45;91.78
66586;SHT30;53444;45.822;16.092;2024-01-07T11:49:42;4.42;91.55
66586;SHT30;53444;45.822;16.092;2024-01-07T11:52:09;4.45;91.53
66586;SHT30;53444;45.822;16.092;2024-01-07T11:54:37;4.37;92.03
66586;SHT30;53444;45.822;16.092;2024-01-07T11:57:04;4.39;92.09
66586;SHT30;53444;45.822;16.092;2024-01-07T11:59:31;4.37;91.56
66586;SHT30;53444;45.822;16.092;2024-01-07T12:01:59;4.41;91.73
66586;SHT30;53444;45.822;16.092;2024-01-07T12:04:26;4.45;92.12
66586;SHT30;53444;45.822;16.092;2024-01-07T12:06:55;4.39;92.32
66586;SHT30;53444;45.822;16.092;2024-01-07T12:09:22;4.46;91.82
66586;SHT30;53444;45.822;16.092;2024-01-07T12:11:48;4.58;91.04
66586;SHT30;53444;45.822;16.092;2024-01-07T12:14:15;4.59;90.55
66586;SHT30;53444;45.822;16.092;2024-01-07T12:16:43;4.44;90.98
66586;SHT30;53444;45.822;16.092;2024-01-07T12:19:10;4.51;91.08
66586;SHT30;53444;45.822;16.092;2024-01-07T12:21:37;4.42;91.25
66586;SHT30;53444;45.822;16.092;2024-01-07T12:24:07;4.37;91.42
66586;SHT30;53444;45.822;16.092;2024-01-07T12:26:34;4.39;91.52
66586;SHT30;53444;45.822;16.092;2024-01-07T12:29:02;4.44;91.58
66586;SHT30;53444;45.822;16.092;2024-01-07T12:31:30;4.49;91.79
66586;SHT30;53444;45.822;16.092;2024-01-07T12:33:57;4.35;90.99
66586;SHT30;53444;45.822;16.092;2024-01-07T12:36:24;4.29;92.01
66586;SHT30;53444;45.822;16.092;2024-01-07T12:38:52;4.31;91.90
66586;SHT30;53444;45.822;16.092;2024-01-07T12:41:21;4.41;91.91
66586;SHT30;53444;45.822;16.092;2024-01-07T12:43:48;4.37;91.31
66586;SHT30;53444;45.822;16.092;2024-01-07T12:46:15;4.35;91.90
66586;SHT30;53444;45.822;16.092;2024-01-07T12:48:42;4.38;91.84
66586;SHT30;53444;45.822;16.092;2024-01-07T12:51:09;4.21;92.27
66586;SHT30;53444;45.822;16.092;2024-01-07T12:53:36;4.21;92.04
66586;SHT30;53444;45.822;16.092;2024-01-07T12:56:04;4.28;91.83
66586;SHT30;53444;45.822;16.092;2024-01-07T12:58:32;4.25;91.19
66586;SHT30;53444;45.822;16.092;2024-01-07T13:00:59;4.21;91.78
66586;SHT30;53444;45.822;16.092;2024-01-07T13:03:26;4.24;92.16
66586;SHT30;53444;45.822;16.092;2024-01-07T13:05:53;4.24;92.52
66586;SHT30;53444;45.822;16.092;2024-01-07T13:08:20;4.22;92.46
66586;SHT30;53444;45.822;16.092;2024-01-07T13:10:50;4.24;91.94
66586;SHT30;53444;45.822;16.092;2024-01-07T13:13:17;4.10;92.49
66586;SHT30;53444;45.822;16.092;2024-01-07T13:15:45;4.15;92.73
66586;SHT30;53444;45.822;16.092;2024-01-07T13:18:12;4.05;92.48
66586;SHT30;53444;45.822;16.092;2024-01-07T13:20:39;4.10;92.60
66586;SHT30;53444;45.822;16.092;2024-01-07T13:23:06;3.98;92.26
66586;SHT30;53444;45.822;16.092;2024-01-07T13:25:33;3.88;91.81
66586;SHT30;53444;45.822;16.092;2024-01-07T13:28:00;3.87;91.81
66586;SHT30;53444;45.822;16.092;2024-01-07T13:30:27;3.95;91.77
66586;SHT30;53444;45.822;16.092;2024-01-07T13:32:55;3.90;91.73
66586;SHT30;53444;45.822;16.092;2024-01-07T13:35:23;3.93;91.72
66586;SHT30;53444;45.822;16.092;2024-01-07T13:37:50;3.95;91.76
66586;SHT30;53444;45.822;16.092;2024-01-07T13:40:18;3.93;92.17
66586;SHT30;53444;45.822;16.092;2024-01-07T13:42:45;3.98;91.60
66586;SHT30;53444;45.822;16.092;2024-01-07T13:45:16;4.00;91.48
66586;SHT30;53444;45.822;16.092;2024-01-07T13:47:45;4.00;91.88
66586;SHT30;53444;45.822;16.092;2024-01-07T13:50:13;3.95;92.52
66586;SHT30;53444;45.822;16.092;2024-01-07T13:52:40;3.97;93.03
66586;SHT30;53444;45.822;16.092;2024-01-07T13:55:08;3.97;93.30
66586;SHT30;53444;45.822;16.092;2024-01-07T13:57:36;3.94;93.60
66586;SHT30;53444;45.822;16.092;2024-01-07T14:00:03;3.97;93.85
66586;SHT30;53444;45.822;16.092;2024-01-07T14:02:34;3.90;93.33
66586;SHT30;53444;45.822;16.092;2024-01-07T14:05:03;3.98;93.31
66586;SHT30;53444;45.822;16.092;2024-01-07T14:07:33;3.98;93.69
66586;SHT30;53444;45.822;16.092;2024-01-07T14:10:00;4.04;93.17
66586;SHT30;53444;45.822;16.092;2024-01-07T14:12:28;3.98;93.02
66586;SHT30;53444;45.822;16.092;2024-01-07T14:14:55;4.04;93.27
66586;SHT30;53444;45.822;16.092;2024-01-07T14:17:22;3.95;93.64
66586;SHT30;53444;45.822;16.092;2024-01-07T14:19:49;4.00;93.74
66586;SHT30;53444;45.822;16.092;2024-01-07T14:22:18;3.91;92.63
66586;SHT30;53444;45.822;16.092;2024-01-07T14:24:47;3.84;92.46
66586;SHT30;53444;45.822;16.092;2024-01-07T14:27:14;3.91;91.89
66586;SHT30;53444;45.822;16.092;2024-01-07T14:29:41;3.87;92.21
66586;SHT30;53444;45.822;16.092;2024-01-07T14:32:09;3.83;92.36
66586;SHT30;53444;45.822;16.092;2024-01-07T14:34:38;3.77;92.88
66586;SHT30;53444;45.822;16.092;2024-01-07T14:37:07;3.77;92.26
66586;SHT30;53444;45.822;16.092;2024-01-07T14:39:35;3.77;92.66
66586;SHT30;53444;45.822;16.092;2024-01-07T14:42:04;3.78;92.54
66586;SHT30;53444;45.822;16.092;2024-01-07T14:44:31;3.80;91.87
66586;SHT30;53444;45.822;16.092;2024-01-07T14:46:59;3.78;91.71
66586;SHT30;53444;45.822;16.092;2024-01-07T14:49:26;3.74;91.68
66586;SHT30;53444;45.822;16.092;2024-01-07T14:51:52;3.76;92.10
66586;SHT30;53444;45.822;16.092;2024-01-07T14:54:20;3.74;91.94
66586;SHT30;53444;45.822;16.092;2024-01-07T14:56:46;3.66;91.51
66586;SHT30;53444;45.822;16.092;2024-01-07T14:59:15;3.59;91.66
66586;SHT30;53444;45.822;16.092;2024-01-07T15:01:42;3.60;91.83
66586;SHT30;53444;45.822;16.092;2024-01-07T15:04:09;3.44;91.35
66586;SHT30;53444;45.822;16.092;2024-01-07T15:06:39;3.53;91.40
66586;SHT30;53444;45.822;16.092;2024-01-07T15:09:07;3.50;91.61
66586;SHT30;53444;45.822;16.092;2024-01-07T15:11:35;3.52;91.50
66586;SHT30;53444;45.822;16.092;2024-01-07T15:14:01;3.55;90.84
66586;SHT30;53444;45.822;16.092;2024-01-07T15:16:34;3.57;90.66
66586;SHT30;53444;45.822;16.092;2024-01-07T15:19:01;3.53;90.88
66586;SHT30;53444;45.822;16.092;2024-01-07T15:21:28;3.43;91.25
66586;SHT30;53444;45.822;16.092;2024-01-07T15:23:55;3.19;90.99
66586;SHT30;53444;45.822;16.092;2024-01-07T15:26:22;3.09;91.87
66586;SHT30;53444;45.822;16.092;2024-01-07T15:28:49;3.18;90.81
66586;SHT30;53444;45.822;16.092;2024-01-07T15:31:16;3.09;90.92